createdAt,value
2018-08-24T00:01:20.809Z,2.23
2018-08-24T00:03:55.239Z,2.10
2018-08-24T00:06:29.492Z,2.90
2018-08-24T00:09:06.632Z,2.00
2018-08-24T00:11:41.073Z,2.63
2018-08-24T00:14:15.444Z,2.00
2018-08-24T00:16:49.781Z,1.90
2018-08-24T00:19:24.144Z,2.20
2018-08-24T00:21:58.378Z,2.30
2018-08-24T00:24:32.655Z,2.10
2018-08-24T00:27:07.196Z,1.73
2018-08-24T00:29:41.572Z,1.60
2018-08-24T00:32:15.928Z,1.90
2018-08-24T00:34:50.300Z,2.30
2018-08-24T00:37:24.549Z,2.03
2018-08-24T00:39:58.915Z,2.00
2018-08-24T00:42:33.290Z,1.90
2018-08-24T00:45:07.607Z,1.77
2018-08-24T00:47:42.006Z,1.63
2018-08-24T00:50:16.413Z,1.67
2018-08-24T00:52:50.616Z,1.30
2018-08-24T00:55:25.052Z,1.60
2018-08-24T00:57:59.416Z,1.30
2018-08-24T01:00:39.081Z,1.77
2018-08-24T01:03:14.316Z,1.40
2018-08-24T01:05:48.672Z,1.30
2018-08-24T01:08:22.910Z,1.47
2018-08-24T01:10:57.232Z,2.20
2018-08-24T01:13:31.669Z,1.60
2018-08-24T01:16:05.994Z,1.20
2018-08-24T01:18:45.628Z,1.20
2018-08-24T01:21:20.003Z,1.60
2018-08-24T01:23:54.452Z,1.57
2018-08-24T01:26:28.663Z,1.20
2018-08-24T01:29:03.055Z,1.37
2018-08-24T01:31:37.442Z,1.63
2018-08-24T01:34:11.764Z,1.30
2018-08-24T01:36:45.984Z,0.90
2018-08-24T01:39:20.200Z,1.00
2018-08-24T01:41:54.544Z,1.30
2018-08-24T01:44:29.023Z,1.10
2018-08-24T01:47:03.279Z,1.10
2018-08-24T01:49:37.527Z,1.07
2018-08-24T01:52:11.928Z,1.30
2018-08-24T01:54:46.284Z,1.20
2018-08-24T01:57:20.567Z,1.00
2018-08-24T01:59:55.096Z,1.03
2018-08-24T02:02:29.452Z,0.80
2018-08-24T02:05:03.842Z,1.20
2018-08-24T02:07:38.412Z,1.10
2018-08-24T02:10:18.101Z,0.80
2018-08-24T02:12:57.729Z,1.10
2018-08-24T02:15:31.994Z,1.83
2018-08-24T02:18:11.942Z,1.00
2018-08-24T02:20:51.736Z,0.93
2018-08-24T02:23:26.111Z,0.97
2018-08-24T02:26:00.516Z,1.30
2018-08-24T02:28:34.875Z,2.10
2018-08-24T02:31:09.251Z,0.90
2018-08-24T02:33:43.584Z,0.70
2018-08-24T02:36:18.033Z,1.10
2018-08-24T02:38:52.220Z,1.13
2018-08-24T02:41:26.575Z,0.90
2018-08-24T02:44:00.898Z,0.87
2018-08-24T02:46:35.297Z,1.10
2018-08-24T02:49:09.653Z,0.90
2018-08-24T02:51:43.949Z,0.70
2018-08-24T02:54:18.280Z,1.10
2018-08-24T02:56:52.601Z,1.33
2018-08-24T02:59:26.896Z,1.47
2018-08-24T03:02:01.217Z,1.20
2018-08-24T03:04:35.627Z,0.70
2018-08-24T03:07:09.941Z,0.77
2018-08-24T03:09:44.180Z,1.53
2018-08-24T03:12:18.586Z,1.10
2018-08-24T03:14:52.937Z,1.53
2018-08-24T03:17:32.573Z,1.60
2018-08-24T03:20:07.052Z,0.83
2018-08-24T03:22:41.335Z,1.27
2018-08-24T03:25:15.740Z,0.83
2018-08-24T03:27:50.036Z,1.20
2018-08-24T03:30:24.405Z,0.80
2018-08-24T03:32:58.822Z,0.97
2018-08-24T03:35:33.081Z,3.10
2018-08-24T03:38:07.315Z,0.80
2018-08-24T03:40:41.512Z,1.00
2018-08-24T03:43:16.237Z,1.97
2018-08-24T03:45:50.488Z,1.97
2018-08-24T03:48:24.717Z,1.43
2018-08-24T03:50:58.977Z,1.03
2018-08-24T03:53:33.289Z,1.90
2018-08-24T03:56:07.560Z,1.90
2018-08-24T03:58:41.775Z,1.77
2018-08-24T04:01:16.008Z,1.10
2018-08-24T04:03:50.359Z,1.40
2018-08-24T04:06:24.574Z,0.93
2018-08-24T04:08:58.962Z,0.97
2018-08-24T04:11:33.213Z,1.20
2018-08-24T04:14:08.019Z,0.93
2018-08-24T04:16:47.954Z,0.90
2018-08-24T04:19:29.122Z,1.10
2018-08-24T04:22:03.432Z,1.50
2018-08-24T04:24:40.444Z,1.27
2018-08-24T04:27:14.673Z,1.30
2018-08-24T04:29:48.972Z,1.53
2018-08-24T04:32:23.323Z,1.00
2018-08-24T04:34:57.547Z,0.60
2018-08-24T04:37:31.784Z,1.50
2018-08-24T04:40:06.164Z,1.07
2018-08-24T04:42:40.573Z,1.37
2018-08-24T04:45:14.916Z,1.27
2018-08-24T04:47:49.260Z,1.00
2018-08-24T04:50:23.551Z,1.33
2018-08-24T04:52:57.807Z,5.43
2018-08-24T04:55:32.141Z,7.20
2018-08-24T04:58:06.526Z,9.77
2018-08-24T05:00:40.897Z,9.90
2018-08-24T05:03:15.284Z,11.00
2018-08-24T05:05:49.619Z,10.60
2018-08-24T05:08:23.738Z,13.50
2018-08-24T05:10:58.127Z,11.00
2018-08-24T05:13:32.497Z,13.17
2018-08-24T05:16:06.888Z,16.03
2018-08-24T05:18:41.132Z,14.80
2018-08-24T05:21:15.411Z,11.70
2018-08-24T05:23:49.756Z,13.57
2018-08-24T05:26:23.977Z,13.07
2018-08-24T05:28:58.273Z,13.57
2018-08-24T05:31:32.647Z,14.30
2018-08-24T05:34:06.986Z,15.00
2018-08-24T05:36:41.294Z,20.10
2018-08-24T05:39:15.547Z,17.03
2018-08-24T05:41:49.828Z,16.60
2018-08-24T05:44:24.068Z,20.90
2018-08-24T05:46:58.376Z,19.77
2018-08-24T05:49:32.729Z,18.60
2018-08-24T05:52:07.354Z,21.37
2018-08-24T05:54:41.710Z,21.70
2018-08-24T05:57:15.971Z,25.03
2018-08-24T05:59:50.284Z,22.93
2018-08-24T06:02:24.885Z,22.90
2018-08-24T06:04:59.238Z,23.87
2018-08-24T06:07:33.599Z,24.77
2018-08-24T06:10:07.914Z,31.77
2018-08-24T06:12:42.117Z,27.23
2018-08-24T06:15:16.684Z,31.37
2018-08-24T06:17:53.165Z,28.17
2018-08-24T06:20:27.555Z,21.17
2018-08-24T06:23:01.889Z,26.57
2018-08-24T06:25:36.129Z,31.13
2018-08-24T06:28:10.499Z,28.40
2018-08-24T06:30:44.941Z,31.90
2018-08-24T06:33:22.862Z,25.83
2018-08-24T06:35:57.060Z,26.93
2018-08-24T06:38:31.479Z,34.53
2018-08-24T06:41:07.253Z,29.90
2018-08-24T06:43:41.658Z,26.63
2018-08-24T06:46:16.082Z,30.77
2018-08-24T06:48:50.507Z,30.93
2018-08-24T06:51:24.796Z,28.00
2018-08-24T06:53:59.172Z,30.40
2018-08-24T06:56:33.546Z,27.43
2018-08-24T06:59:07.989Z,31.67
2018-08-24T07:01:42.384Z,26.70
2018-08-24T07:04:16.628Z,31.93
2018-08-24T07:06:50.956Z,30.87
2018-08-24T07:09:25.212Z,29.87
2018-08-24T07:11:59.501Z,29.33
2018-08-24T07:14:33.865Z,32.13
2018-08-24T07:17:08.203Z,30.23
2018-08-24T07:19:42.492Z,31.80
2018-08-24T07:22:16.947Z,26.50
2018-08-24T07:24:51.174Z,28.57
2018-08-24T07:27:25.538Z,33.53
2018-08-24T07:29:59.828Z,32.10
2018-08-24T07:32:34.290Z,18.33
2018-08-24T07:35:08.528Z,17.10
2018-08-24T07:37:42.964Z,24.63
2018-08-24T07:40:17.229Z,20.00
2018-08-24T07:42:51.894Z,19.93
2018-08-24T07:45:27.253Z,18.63
2018-08-24T07:48:01.540Z,21.63
2018-08-24T07:50:35.843Z,22.37
2018-08-24T07:53:10.260Z,17.50
2018-08-24T07:55:44.605Z,20.87
2018-08-24T07:58:18.974Z,18.53
2018-08-24T08:00:53.313Z,20.90
2018-08-24T08:03:27.717Z,15.57
2018-08-24T08:06:01.989Z,16.10
2018-08-24T08:08:36.240Z,16.57
2018-08-24T08:11:10.543Z,15.13
2018-08-24T08:13:44.941Z,16.37
2018-08-24T08:16:19.260Z,13.47
2018-08-24T08:18:53.623Z,14.17
2018-08-24T08:21:27.888Z,11.73
2018-08-24T08:24:02.198Z,14.57
2018-08-24T08:26:36.447Z,11.17
2018-08-24T08:29:14.908Z,12.93
2018-08-24T08:31:49.598Z,12.50
2018-08-24T08:34:23.856Z,15.37
2018-08-24T08:36:58.304Z,9.77
2018-08-24T08:39:32.514Z,7.27
2018-08-24T08:42:06.934Z,20.87
2018-08-24T08:44:41.210Z,10.17
2018-08-24T08:47:15.700Z,12.60
2018-08-24T08:49:49.984Z,10.53
2018-08-24T08:52:24.348Z,8.13
2018-08-24T08:54:58.722Z,8.23
2018-08-24T08:57:33.201Z,7.17
2018-08-24T09:00:07.483Z,7.23
2018-08-24T09:02:41.829Z,6.77
2018-08-24T09:05:16.126Z,11.23
2018-08-24T09:07:50.468Z,8.40
2018-08-24T09:10:24.746Z,6.03
2018-08-24T09:12:59.270Z,13.10
2018-08-24T09:15:33.676Z,9.67
2018-08-24T09:18:13.479Z,5.73
2018-08-24T09:20:53.194Z,7.20
2018-08-24T09:23:32.933Z,8.73
2018-08-24T09:26:12.653Z,8.63
2018-08-24T09:28:47.522Z,11.33
2018-08-24T09:31:26.172Z,8.20
2018-08-24T09:34:00.676Z,8.83
2018-08-24T09:36:34.904Z,5.80
2018-08-24T09:39:09.255Z,6.57
2018-08-24T09:41:43.493Z,8.90
2018-08-24T09:44:18.009Z,5.80
2018-08-24T09:46:57.766Z,5.07
2018-08-24T09:49:37.005Z,7.30
2018-08-24T09:52:16.562Z,9.73
2018-08-24T09:54:50.987Z,5.73
2018-08-24T09:57:25.383Z,9.17
2018-08-24T09:59:59.799Z,4.57
2018-08-24T10:02:39.675Z,7.47
2018-08-24T10:09:38.180Z,7.90
2018-08-24T10:12:12.573Z,9.77
2018-08-24T10:14:46.888Z,5.00
2018-08-24T10:17:25.646Z,7.80
2018-08-24T10:19:59.864Z,5.47
2018-08-24T10:22:34.296Z,5.67
2018-08-24T10:25:08.541Z,7.57
2018-08-24T10:27:42.803Z,6.33
2018-08-24T10:30:17.072Z,6.70
2018-08-24T10:32:51.403Z,11.13
2018-08-24T10:35:25.771Z,7.63
2018-08-24T10:38:00.121Z,9.07
2018-08-24T10:40:34.404Z,9.97
2018-08-24T10:43:08.687Z,5.97
2018-08-24T10:45:42.916Z,5.73
2018-08-24T10:48:17.149Z,5.20
2018-08-24T10:50:51.556Z,6.90
2018-08-24T10:53:26.037Z,3.87
2018-08-24T10:56:00.391Z,7.57
2018-08-24T10:58:35.632Z,5.47
2018-08-24T11:01:09.909Z,5.80
2018-08-24T11:03:44.479Z,6.07
2018-08-24T11:06:18.883Z,4.27
2018-08-24T11:08:53.164Z,3.30
2018-08-24T11:11:27.390Z,5.47
2018-08-24T11:14:01.601Z,6.60
2018-08-24T11:16:35.964Z,5.67
2018-08-24T11:19:10.193Z,6.37
2018-08-24T11:21:44.474Z,6.13
2018-08-24T11:24:18.812Z,5.67
2018-08-24T11:26:53.438Z,3.87
2018-08-24T11:29:27.695Z,4.80
2018-08-24T11:32:01.944Z,5.70
2018-08-24T11:34:36.425Z,7.37
2018-08-24T11:37:10.651Z,5.93
2018-08-24T11:39:44.935Z,3.37
2018-08-24T11:42:19.327Z,5.33
2018-08-24T11:44:53.741Z,3.07
2018-08-24T11:47:28.096Z,10.17
2018-08-24T11:50:02.543Z,4.43
2018-08-24T11:52:36.780Z,2.63
2018-08-24T11:55:11.240Z,3.97
2018-08-24T11:57:45.560Z,4.70
2018-08-24T12:00:24.121Z,3.50
2018-08-24T12:02:58.637Z,2.87
2018-08-24T12:05:32.975Z,5.13
2018-08-24T12:08:07.569Z,2.90
2018-08-24T12:10:41.718Z,5.60
2018-08-24T12:13:16.074Z,3.70
2018-08-24T12:15:50.512Z,2.47
2018-08-24T12:18:24.973Z,3.33
2018-08-24T12:20:59.742Z,2.33
2018-08-24T12:23:34.012Z,4.53
2018-08-24T12:26:08.309Z,3.93
2018-08-24T12:28:42.638Z,3.67
2018-08-24T12:31:16.996Z,4.97
2018-08-24T12:33:51.340Z,3.40
2018-08-24T12:36:25.610Z,4.90
2018-08-24T12:39:00.286Z,2.37
2018-08-24T12:41:34.800Z,4.33
2018-08-24T12:44:09.204Z,3.70
2018-08-24T12:46:43.578Z,3.00
2018-08-24T12:49:18.020Z,6.67
2018-08-24T12:51:52.249Z,3.33
2018-08-24T12:54:26.537Z,2.43
2018-08-24T12:57:00.924Z,2.70
2018-08-24T12:59:35.318Z,3.37
2018-08-24T13:02:09.675Z,1.20
2018-08-24T13:04:43.921Z,2.97
2018-08-24T13:07:18.308Z,1.47
2018-08-24T13:09:52.702Z,4.37
2018-08-24T13:12:26.993Z,2.73
2018-08-24T13:15:01.237Z,2.27
2018-08-24T13:17:35.772Z,1.83
2018-08-24T13:20:09.987Z,7.23
2018-08-24T13:22:44.205Z,2.17
2018-08-24T13:25:18.485Z,4.23
2018-08-24T13:27:52.858Z,4.90
2018-08-24T13:30:27.237Z,4.13
2018-08-24T13:33:01.756Z,1.63
2018-08-24T13:35:36.410Z,4.47
2018-08-24T13:38:10.832Z,2.50
2018-08-24T13:40:45.338Z,3.83
2018-08-24T13:43:19.603Z,3.10
2018-08-24T13:45:54.046Z,3.63
2018-08-24T13:48:28.508Z,3.73
2018-08-24T13:51:02.876Z,2.17
2018-08-24T13:53:37.329Z,2.27
2018-08-24T13:56:11.712Z,3.07
2018-08-24T13:58:46.112Z,4.83
2018-08-24T14:01:20.456Z,2.83
2018-08-24T14:03:54.729Z,2.13
2018-08-24T14:06:29.078Z,4.10
2018-08-24T14:09:04.033Z,4.40
2018-08-24T14:11:38.349Z,2.70
2018-08-24T14:14:12.747Z,3.90
2018-08-24T14:16:47.070Z,8.27
2018-08-24T14:19:21.280Z,4.97
2018-08-24T14:21:55.740Z,1.50
2018-08-24T14:24:29.956Z,3.30
2018-08-24T14:27:04.368Z,3.43
2018-08-24T14:29:38.735Z,2.83
2018-08-24T14:32:12.976Z,4.97
2018-08-24T14:34:47.283Z,4.50
2018-08-24T14:37:21.634Z,4.87
2018-08-24T14:39:56.089Z,4.10
2018-08-24T14:42:30.482Z,5.63
2018-08-24T14:45:05.030Z,2.77
2018-08-24T14:47:39.238Z,4.10
2018-08-24T14:50:13.500Z,5.30
2018-08-24T14:52:48.008Z,3.33
2018-08-24T14:55:23.397Z,2.80
2018-08-24T14:57:57.747Z,2.53
2018-08-24T15:00:32.048Z,2.87
2018-08-24T15:03:06.264Z,3.53
2018-08-24T15:05:40.596Z,3.60
2018-08-24T15:08:14.921Z,4.17
2018-08-24T15:10:49.304Z,3.57
2018-08-24T15:13:23.799Z,2.30
2018-08-24T15:15:58.053Z,3.73
2018-08-24T15:18:32.404Z,2.80
2018-08-24T15:21:06.815Z,4.00
2018-08-24T15:23:41.044Z,3.73
2018-08-24T15:26:15.308Z,2.53
2018-08-24T15:28:49.628Z,1.83
2018-08-24T15:31:24.026Z,2.87
2018-08-24T15:33:58.319Z,2.53
2018-08-24T15:36:32.568Z,3.17
2018-08-24T15:39:09.038Z,2.07
2018-08-24T15:41:43.561Z,4.07
2018-08-24T15:44:17.880Z,1.97
2018-08-24T15:46:52.118Z,5.97
2018-08-24T15:49:26.465Z,3.07
2018-08-24T15:52:00.933Z,3.60
2018-08-24T15:54:35.269Z,2.77
2018-08-24T15:57:09.536Z,2.40
2018-08-24T15:59:43.776Z,3.03
2018-08-24T16:02:18.040Z,6.10
2018-08-24T16:04:52.373Z,5.97
2018-08-24T16:07:26.629Z,4.33
2018-08-24T16:10:00.927Z,2.13
2018-08-24T16:12:35.496Z,1.40
2018-08-24T16:15:09.779Z,2.23
2018-08-24T16:17:48.431Z,3.97
2018-08-24T16:20:23.584Z,1.93
2018-08-24T16:22:58.043Z,2.73
2018-08-24T16:25:32.348Z,4.67
2018-08-24T16:28:06.748Z,2.00
2018-08-24T16:30:41.130Z,1.90
2018-08-24T16:33:15.524Z,2.87
2018-08-24T16:35:49.828Z,1.37
2018-08-24T16:38:24.145Z,3.40
2018-08-24T16:40:58.553Z,2.57
2018-08-24T16:43:33.024Z,2.63
2018-08-24T16:46:07.344Z,4.00
2018-08-24T16:48:41.675Z,1.57
2018-08-24T16:51:15.940Z,2.10
2018-08-24T16:53:50.168Z,4.17
2018-08-24T16:56:24.574Z,4.43
2018-08-24T16:58:58.777Z,2.60
2018-08-24T17:01:33.152Z,3.77
2018-08-24T17:04:07.473Z,5.67
2018-08-24T17:06:41.743Z,2.60
2018-08-24T17:09:16.124Z,3.87
2018-08-24T17:11:50.432Z,2.37
2018-08-24T17:14:24.926Z,1.73
2018-08-24T17:16:59.348Z,1.80
2018-08-24T17:19:34.097Z,5.57
2018-08-24T17:22:08.435Z,2.53
2018-08-24T17:24:42.736Z,3.13
2018-08-24T17:27:17.105Z,3.20
2018-08-24T17:29:51.476Z,2.93
2018-08-24T17:32:25.751Z,2.70
2018-08-24T17:35:00.004Z,2.80
2018-08-24T17:37:34.294Z,2.53
2018-08-24T17:40:08.662Z,4.07
2018-08-24T17:42:42.988Z,3.03
2018-08-24T17:45:17.283Z,3.33
2018-08-24T17:47:51.754Z,4.60
2018-08-24T17:50:26.261Z,4.13
2018-08-24T17:53:00.648Z,4.17
2018-08-24T17:55:34.908Z,3.53
2018-08-24T17:58:09.496Z,3.73
2018-08-24T18:00:43.889Z,4.60
2018-08-24T18:03:18.310Z,3.83
2018-08-24T18:05:52.548Z,3.43
2018-08-24T18:08:26.917Z,3.17
2018-08-24T18:11:01.279Z,6.60
2018-08-24T18:13:35.534Z,5.30
2018-08-24T18:16:09.908Z,8.33
2018-08-24T18:18:44.340Z,3.13
2018-08-24T18:21:18.676Z,3.27
2018-08-24T18:23:53.039Z,5.13
2018-08-24T18:26:27.413Z,5.57
2018-08-24T18:29:01.936Z,5.17
2018-08-24T18:31:36.305Z,2.10
2018-08-24T18:34:10.576Z,1.60
2018-08-24T18:36:44.979Z,1.90
2018-08-24T18:39:19.233Z,4.23
2018-08-24T18:41:53.505Z,1.87
2018-08-24T18:44:27.801Z,1.90
2018-08-24T18:47:02.157Z,1.80
2018-08-24T18:49:36.464Z,2.50
2018-08-24T18:52:10.747Z,1.83
2018-08-24T18:54:45.067Z,2.37
2018-08-24T18:57:19.383Z,2.17
2018-08-24T18:59:53.781Z,2.80
2018-08-24T19:02:28.154Z,1.43
2018-08-24T19:05:02.540Z,3.13
2018-08-24T19:07:36.857Z,1.13
2018-08-24T19:10:11.086Z,1.93
2018-08-24T19:12:45.537Z,1.37
2018-08-24T19:15:19.932Z,1.47
2018-08-24T19:17:59.802Z,1.17
2018-08-24T19:20:39.619Z,1.50
2018-08-24T19:23:13.877Z,2.10
2018-08-24T19:25:48.258Z,1.07
2018-08-24T19:28:27.941Z,2.27
2018-08-24T19:31:02.249Z,1.73
2018-08-24T19:33:36.603Z,3.53
2018-08-24T19:36:11.055Z,2.83
2018-08-24T19:38:45.368Z,2.63
2018-08-24T19:41:25.134Z,2.43
2018-08-24T19:43:59.633Z,2.30
2018-08-24T19:46:33.955Z,3.90
2018-08-24T19:49:14.133Z,1.00
2018-08-24T19:51:48.434Z,1.20
2018-08-24T19:54:22.809Z,0.83
2018-08-24T19:57:01.264Z,2.10
2018-08-24T19:59:35.656Z,0.97
2018-08-24T20:02:10.006Z,0.70
2018-08-24T20:04:44.492Z,2.10
2018-08-24T20:07:24.238Z,1.17
2018-08-24T20:10:05.353Z,1.40
2018-08-24T20:12:39.562Z,0.80
2018-08-24T20:15:19.442Z,2.30
2018-08-24T20:17:53.792Z,1.53
2018-08-24T20:20:28.143Z,1.93
2018-08-24T20:23:02.405Z,1.73
2018-08-24T20:25:36.825Z,1.70
2018-08-24T20:28:11.220Z,1.07
2018-08-24T20:30:45.632Z,2.33
2018-08-24T20:33:20.015Z,1.23
2018-08-24T20:35:54.541Z,1.00
2018-08-24T20:38:28.922Z,0.97
2018-08-24T20:41:03.175Z,2.17
2018-08-24T20:43:37.384Z,1.67
2018-08-24T20:46:11.742Z,2.00
2018-08-24T20:48:46.063Z,1.27
2018-08-24T20:51:20.332Z,0.60
2018-08-24T20:53:54.657Z,1.63
2018-08-24T20:56:28.993Z,1.40
2018-08-24T20:59:03.519Z,1.37
2018-08-24T21:01:37.745Z,0.83
2018-08-24T21:04:12.227Z,1.23
2018-08-24T21:06:46.484Z,1.43
2018-08-24T21:09:20.866Z,0.93
2018-08-24T21:11:55.172Z,1.23
2018-08-24T21:14:29.560Z,0.83
2018-08-24T21:17:04.077Z,0.83
2018-08-24T21:19:38.452Z,1.20
2018-08-24T21:22:12.901Z,1.97
2018-08-24T21:24:47.221Z,1.50
2018-08-24T21:27:21.570Z,1.73
2018-08-24T21:29:56.026Z,1.27
2018-08-24T21:32:30.290Z,1.30
2018-08-24T21:35:04.677Z,0.90
2018-08-24T21:37:39.071Z,1.40
2018-08-24T21:40:13.409Z,2.00
2018-08-24T21:42:47.707Z,1.37
2018-08-24T21:45:21.978Z,0.90
2018-08-24T21:47:57.205Z,0.93
2018-08-24T21:50:31.605Z,1.00
2018-08-24T21:53:06.128Z,1.30
2018-08-24T21:55:40.640Z,1.30
2018-08-24T21:58:15.079Z,1.00
2018-08-24T22:00:49.344Z,1.40
2018-08-24T22:03:23.701Z,0.57
2018-08-24T22:05:58.352Z,2.90
2018-08-24T22:08:32.764Z,2.07
2018-08-24T22:11:07.128Z,0.80
2018-08-24T22:13:41.466Z,0.77
2018-08-24T22:16:15.804Z,1.33
2018-08-24T22:18:50.217Z,1.93
2018-08-24T22:21:24.526Z,0.83
2018-08-24T22:23:58.935Z,0.70
2018-08-24T22:26:33.350Z,1.70
2018-08-24T22:29:07.648Z,0.70
2018-08-24T22:31:41.924Z,0.70
2018-08-24T22:34:16.220Z,0.60
2018-08-24T22:36:50.484Z,1.23
2018-08-24T22:39:24.815Z,0.93
2018-08-24T22:41:59.111Z,0.93
2018-08-24T22:44:33.898Z,0.83
2018-08-24T22:47:08.157Z,1.00
2018-08-24T22:49:42.433Z,1.13
2018-08-24T22:52:16.914Z,1.33
2018-08-24T22:54:51.287Z,1.17
2018-08-24T22:57:25.664Z,10.47
2018-08-24T23:00:00.045Z,1.43
2018-08-24T23:02:34.296Z,1.07
2018-08-24T23:05:08.734Z,1.13
2018-08-24T23:07:43.053Z,3.20
2018-08-24T23:10:17.312Z,1.43
2018-08-24T23:12:51.569Z,1.13
2018-08-24T23:15:25.919Z,1.30
2018-08-24T23:18:01.119Z,2.57
2018-08-24T23:20:35.488Z,4.03
2018-08-24T23:23:09.801Z,2.63
2018-08-24T23:25:44.196Z,1.00
2018-08-24T23:28:18.564Z,2.00
2018-08-24T23:30:52.907Z,1.63
2018-08-24T23:33:28.205Z,1.53
2018-08-24T23:36:02.520Z,2.03
2018-08-24T23:38:36.862Z,1.87
2018-08-24T23:41:11.232Z,1.23
2018-08-24T23:43:45.541Z,0.90
2018-08-24T23:46:19.895Z,1.30
2018-08-24T23:48:54.218Z,2.00
2018-08-24T23:51:28.470Z,1.20
2018-08-24T23:54:02.856Z,1.10
2018-08-24T23:56:37.231Z,0.97
2018-08-24T23:59:11.839Z,4.80
